sensor_id;sensor_type;location;lat;lon;timestamp;P1;durP1;ratioP1;P2;durP2;ratioP2
39738;SDS011;25422;48.286;8.484;2023-03-17T00:01:30;5.25;;;3.50;;
39738;SDS011;25422;48.286;8.484;2023-03-17T00:03:56;5.63;;;3.30;;
39738;SDS011;25422;48.286;8.484;2023-03-17T00:06:31;4.18;;;3.20;;
39738;SDS011;25422;48.286;8.484;2023-03-17T00:08:58;6.75;;;3.60;;
39738;SDS011;25422;48.286;8.484;2023-03-17T00:11:24;4.43;;;3.45;;
39738;SDS011;25422;48.286;8.484;2023-03-17T00:13:51;5.95;;;3.67;;
39738;SDS011;25422;48.286;8.484;2023-03-17T00:18:49;5.57;;;3.60;;
39738;SDS011;25422;48.286;8.484;2023-03-17T00:21:50;4.82;;;3.60;;
39738;SDS011;25422;48.286;8.484;2023-03-17T00:24:11;4.30;;;3.30;;
39738;SDS011;25422;48.286;8.484;2023-03-17T00:26:37;6.32;;;3.08;;
39738;SDS011;25422;48.286;8.484;2023-03-17T00:29:02;4.50;;;3.30;;
39738;SDS011;25422;48.286;8.484;2023-03-17T00:31:30;5.32;;;3.20;;
39738;SDS011;25422;48.286;8.484;2023-03-17T00:33:57;6.38;;;3.45;;
39738;SDS011;25422;48.286;8.484;2023-03-17T00:36:28;5.38;;;3.17;;
39738;SDS011;25422;48.286;8.484;2023-03-17T00:38:55;5.65;;;4.07;;
39738;SDS011;25422;48.286;8.484;2023-03-17T00:41:23;5.40;;;3.88;;
39738;SDS011;25422;48.286;8.484;2023-03-17T00:43:49;6.70;;;3.90;;
39738;SDS011;25422;48.286;8.484;2023-03-17T00:49:00;5.28;;;3.92;;
39738;SDS011;25422;48.286;8.484;2023-03-17T00:51:27;6.13;;;3.65;;
39738;SDS011;25422;48.286;8.484;2023-03-17T00:53:53;7.65;;;3.88;;
39738;SDS011;25422;48.286;8.484;2023-03-17T00:56:19;6.22;;;3.70;;
39738;SDS011;25422;48.286;8.484;2023-03-17T00:58:45;5.35;;;4.00;;
39738;SDS011;25422;48.286;8.484;2023-03-17T01:01:13;7.78;;;4.15;;
39738;SDS011;25422;48.286;8.484;2023-03-17T01:03:39;6.85;;;4.15;;
39738;SDS011;25422;48.286;8.484;2023-03-17T01:06:07;7.53;;;4.68;;
39738;SDS011;25422;48.286;8.484;2023-03-17T01:08:35;5.47;;;4.18;;
39738;SDS011;25422;48.286;8.484;2023-03-17T01:11:01;9.15;;;4.63;;
39738;SDS011;25422;48.286;8.484;2023-03-17T01:13:26;6.72;;;4.10;;
39738;SDS011;25422;48.286;8.484;2023-03-17T01:15:52;5.57;;;4.22;;
39738;SDS011;25422;48.286;8.484;2023-03-17T01:18:20;7.15;;;4.30;;
39738;SDS011;25422;48.286;8.484;2023-03-17T01:20:47;6.70;;;4.50;;
39738;SDS011;25422;48.286;8.484;2023-03-17T01:23:14;6.63;;;4.55;;
39738;SDS011;25422;48.286;8.484;2023-03-17T01:25:41;7.22;;;4.10;;
39738;SDS011;25422;48.286;8.484;2023-03-17T01:28:08;5.97;;;4.15;;
39738;SDS011;25422;48.286;8.484;2023-03-17T01:30:38;5.95;;;4.30;;
39738;SDS011;25422;48.286;8.484;2023-03-17T01:33:05;5.53;;;4.63;;
39738;SDS011;25422;48.286;8.484;2023-03-17T01:35:33;6.37;;;4.37;;
39738;SDS011;25422;48.286;8.484;2023-03-17T01:38:01;9.05;;;4.63;;
39738;SDS011;25422;48.286;8.484;2023-03-17T01:40:35;7.20;;;4.65;;
39738;SDS011;25422;48.286;8.484;2023-03-17T01:48:41;6.85;;;5.00;;
39738;SDS011;25422;48.286;8.484;2023-03-17T01:51:25;7.43;;;5.20;;
39738;SDS011;25422;48.286;8.484;2023-03-17T01:54:00;6.57;;;4.65;;
39738;SDS011;25422;48.286;8.484;2023-03-17T01:56:30;6.85;;;4.93;;
39738;SDS011;25422;48.286;8.484;2023-03-17T01:58:58;8.30;;;4.68;;
39738;SDS011;25422;48.286;8.484;2023-03-17T02:01:28;8.93;;;4.50;;
39738;SDS011;25422;48.286;8.484;2023-03-17T02:04:01;8.85;;;4.75;;
39738;SDS011;25422;48.286;8.484;2023-03-17T02:06:27;6.88;;;4.68;;
39738;SDS011;25422;48.286;8.484;2023-03-17T02:08:53;6.00;;;4.40;;
39738;SDS011;25422;48.286;8.484;2023-03-17T02:11:19;6.03;;;4.35;;
39738;SDS011;25422;48.286;8.484;2023-03-17T02:13:46;7.15;;;4.72;;
39738;SDS011;25422;48.286;8.484;2023-03-17T02:16:13;5.60;;;4.45;;
39738;SDS011;25422;48.286;8.484;2023-03-17T02:18:40;8.00;;;4.75;;
39738;SDS011;25422;48.286;8.484;2023-03-17T02:24:11;6.82;;;4.68;;
39738;SDS011;25422;48.286;8.484;2023-03-17T02:26:44;6.32;;;4.57;;
39738;SDS011;25422;48.286;8.484;2023-03-17T02:29:12;6.13;;;4.63;;
39738;SDS011;25422;48.286;8.484;2023-03-17T02:31:39;7.03;;;4.53;;
39738;SDS011;25422;48.286;8.484;2023-03-17T02:34:05;6.03;;;4.65;;
39738;SDS011;25422;48.286;8.484;2023-03-17T02:36:30;7.10;;;4.93;;
39738;SDS011;25422;48.286;8.484;2023-03-17T02:38:56;8.35;;;4.97;;
39738;SDS011;25422;48.286;8.484;2023-03-17T02:41:21;5.70;;;4.55;;
39738;SDS011;25422;48.286;8.484;2023-03-17T02:43:47;6.03;;;4.57;;
39738;SDS011;25422;48.286;8.484;2023-03-17T02:46:13;6.93;;;4.63;;
39738;SDS011;25422;48.286;8.484;2023-03-17T02:48:38;9.00;;;4.70;;
39738;SDS011;25422;48.286;8.484;2023-03-17T02:51:04;6.97;;;4.50;;
39738;SDS011;25422;48.286;8.484;2023-03-17T02:53:30;6.38;;;4.45;;
39738;SDS011;25422;48.286;8.484;2023-03-17T02:55:56;5.82;;;4.45;;
39738;SDS011;25422;48.286;8.484;2023-03-17T02:58:21;5.70;;;4.55;;
39738;SDS011;25422;48.286;8.484;2023-03-17T03:00:47;6.35;;;4.80;;
39738;SDS011;25422;48.286;8.484;2023-03-17T03:03:13;7.30;;;5.28;;
39738;SDS011;25422;48.286;8.484;2023-03-17T03:05:40;7.22;;;4.50;;
39738;SDS011;25422;48.286;8.484;2023-03-17T03:08:06;7.82;;;4.70;;
39738;SDS011;25422;48.286;8.484;2023-03-17T03:10:31;6.85;;;4.80;;
39738;SDS011;25422;48.286;8.484;2023-03-17T03:12:57;7.70;;;5.05;;
39738;SDS011;25422;48.286;8.484;2023-03-17T03:15:22;7.25;;;4.43;;
39738;SDS011;25422;48.286;8.484;2023-03-17T03:17:47;7.85;;;5.18;;
39738;SDS011;25422;48.286;8.484;2023-03-17T03:20:13;7.53;;;5.22;;
39738;SDS011;25422;48.286;8.484;2023-03-17T03:22:38;6.93;;;4.60;;
39738;SDS011;25422;48.286;8.484;2023-03-17T03:25:05;7.03;;;4.97;;
39738;SDS011;25422;48.286;8.484;2023-03-17T03:27:31;6.75;;;4.75;;
39738;SDS011;25422;48.286;8.484;2023-03-17T03:29:57;8.27;;;5.30;;
39738;SDS011;25422;48.286;8.484;2023-03-17T03:32:22;8.45;;;4.78;;
39738;SDS011;25422;48.286;8.484;2023-03-17T03:34:47;7.13;;;4.82;;
39738;SDS011;25422;48.286;8.484;2023-03-17T03:37:13;7.25;;;5.40;;
39738;SDS011;25422;48.286;8.484;2023-03-17T03:39:38;8.02;;;4.68;;
39738;SDS011;25422;48.286;8.484;2023-03-17T03:42:04;6.20;;;4.55;;
39738;SDS011;25422;48.286;8.484;2023-03-17T03:44:31;7.85;;;5.28;;
39738;SDS011;25422;48.286;8.484;2023-03-17T03:46:56;7.82;;;4.82;;
39738;SDS011;25422;48.286;8.484;2023-03-17T03:49:21;11.27;;;4.80;;
39738;SDS011;25422;48.286;8.484;2023-03-17T03:51:47;8.00;;;4.80;;
39738;SDS011;25422;48.286;8.484;2023-03-17T03:54:12;6.57;;;4.50;;
39738;SDS011;25422;48.286;8.484;2023-03-17T03:56:37;7.03;;;4.90;;
39738;SDS011;25422;48.286;8.484;2023-03-17T03:59:03;6.65;;;4.85;;
39738;SDS011;25422;48.286;8.484;2023-03-17T04:01:28;9.52;;;4.85;;
39738;SDS011;25422;48.286;8.484;2023-03-17T04:03:54;6.88;;;4.47;;
39738;SDS011;25422;48.286;8.484;2023-03-17T04:06:19;6.70;;;4.25;;
39738;SDS011;25422;48.286;8.484;2023-03-17T04:08:44;5.47;;;4.30;;
39738;SDS011;25422;48.286;8.484;2023-03-17T04:11:10;6.22;;;4.78;;
39738;SDS011;25422;48.286;8.484;2023-03-17T04:13:35;6.53;;;5.10;;
39738;SDS011;25422;48.286;8.484;2023-03-17T04:16:02;6.32;;;4.80;;
39738;SDS011;25422;48.286;8.484;2023-03-17T04:18:27;7.03;;;5.18;;
39738;SDS011;25422;48.286;8.484;2023-03-17T04:20:53;9.77;;;5.07;;
39738;SDS011;25422;48.286;8.484;2023-03-17T04:23:18;6.85;;;4.60;;
39738;SDS011;25422;48.286;8.484;2023-03-17T04:25:44;8.52;;;4.60;;
39738;SDS011;25422;48.286;8.484;2023-03-17T04:28:09;9.43;;;4.88;;
39738;SDS011;25422;48.286;8.484;2023-03-17T04:30:36;6.22;;;4.57;;
39738;SDS011;25422;48.286;8.484;2023-03-17T04:33:01;7.75;;;4.63;;
39738;SDS011;25422;48.286;8.484;2023-03-17T04:35:27;7.05;;;4.43;;
39738;SDS011;25422;48.286;8.484;2023-03-17T04:37:52;6.20;;;4.47;;
39738;SDS011;25422;48.286;8.484;2023-03-17T04:40:17;6.20;;;4.70;;
39738;SDS011;25422;48.286;8.484;2023-03-17T04:42:43;8.20;;;4.80;;
39738;SDS011;25422;48.286;8.484;2023-03-17T04:45:09;7.60;;;4.95;;
39738;SDS011;25422;48.286;8.484;2023-03-17T04:47:38;7.05;;;4.85;;
39738;SDS011;25422;48.286;8.484;2023-03-17T04:50:03;7.50;;;5.43;;
39738;SDS011;25422;48.286;8.484;2023-03-17T04:52:29;6.05;;;4.75;;
39738;SDS011;25422;48.286;8.484;2023-03-17T04:54:55;6.53;;;4.75;;
39738;SDS011;25422;48.286;8.484;2023-03-17T04:57:20;8.32;;;5.20;;
39738;SDS011;25422;48.286;8.484;2023-03-17T04:59:46;7.47;;;5.25;;
39738;SDS011;25422;48.286;8.484;2023-03-17T05:02:11;5.97;;;4.72;;
39738;SDS011;25422;48.286;8.484;2023-03-17T05:04:37;7.70;;;4.90;;
39738;SDS011;25422;48.286;8.484;2023-03-17T05:07:02;8.80;;;4.90;;
39738;SDS011;25422;48.286;8.484;2023-03-17T05:09:28;6.18;;;4.63;;
39738;SDS011;25422;48.286;8.484;2023-03-17T05:11:53;7.50;;;4.57;;
39738;SDS011;25422;48.286;8.484;2023-03-17T05:14:19;6.72;;;4.20;;
39738;SDS011;25422;48.286;8.484;2023-03-17T05:16:45;8.63;;;5.03;;
39738;SDS011;25422;48.286;8.484;2023-03-17T05:19:11;6.60;;;4.72;;
39738;SDS011;25422;48.286;8.484;2023-03-17T05:21:37;8.32;;;5.18;;
39738;SDS011;25422;48.286;8.484;2023-03-17T05:24:02;7.40;;;4.35;;
39738;SDS011;25422;48.286;8.484;2023-03-17T05:26:29;7.15;;;4.70;;
39738;SDS011;25422;48.286;8.484;2023-03-17T05:28:54;5.68;;;4.40;;
39738;SDS011;25422;48.286;8.484;2023-03-17T05:31:19;8.43;;;5.25;;
39738;SDS011;25422;48.286;8.484;2023-03-17T05:33:45;8.27;;;5.57;;
39738;SDS011;25422;48.286;8.484;2023-03-17T05:36:11;9.00;;;5.25;;
39738;SDS011;25422;48.286;8.484;2023-03-17T05:38:36;7.22;;;4.72;;
39738;SDS011;25422;48.286;8.484;2023-03-17T05:41:01;8.50;;;5.20;;
39738;SDS011;25422;48.286;8.484;2023-03-17T05:43:28;7.43;;;4.57;;
39738;SDS011;25422;48.286;8.484;2023-03-17T05:45:54;5.95;;;4.38;;
39738;SDS011;25422;48.286;8.484;2023-03-17T05:48:19;8.43;;;4.32;;
39738;SDS011;25422;48.286;8.484;2023-03-17T05:50:45;15.35;;;5.22;;
39738;SDS011;25422;48.286;8.484;2023-03-17T05:53:10;9.05;;;4.57;;
39738;SDS011;25422;48.286;8.484;2023-03-17T05:55:36;7.38;;;4.88;;
39738;SDS011;25422;48.286;8.484;2023-03-17T05:58:01;7.50;;;4.93;;
39738;SDS011;25422;48.286;8.484;2023-03-17T06:00:28;9.90;;;6.28;;
39738;SDS011;25422;48.286;8.484;2023-03-17T06:02:55;11.98;;;5.63;;
39738;SDS011;25422;48.286;8.484;2023-03-17T06:05:20;9.05;;;5.70;;
39738;SDS011;25422;48.286;8.484;2023-03-17T06:07:46;9.90;;;4.88;;
39738;SDS011;25422;48.286;8.484;2023-03-17T06:10:12;7.22;;;4.85;;
39738;SDS011;25422;48.286;8.484;2023-03-17T06:12:38;9.38;;;4.70;;
39738;SDS011;25422;48.286;8.484;2023-03-17T06:15:03;8.25;;;5.50;;
39738;SDS011;25422;48.286;8.484;2023-03-17T06:17:29;10.57;;;5.22;;
39738;SDS011;25422;48.286;8.484;2023-03-17T06:19:55;6.57;;;4.50;;
39738;SDS011;25422;48.286;8.484;2023-03-17T06:22:20;8.05;;;4.68;;
39738;SDS011;25422;48.286;8.484;2023-03-17T06:24:46;7.70;;;4.80;;
39738;SDS011;25422;48.286;8.484;2023-03-17T06:27:11;8.05;;;5.10;;
39738;SDS011;25422;48.286;8.484;2023-03-17T06:29:38;6.82;;;4.95;;
39738;SDS011;25422;48.286;8.484;2023-03-17T06:32:03;9.20;;;5.00;;
39738;SDS011;25422;48.286;8.484;2023-03-17T06:34:29;9.05;;;4.53;;
39738;SDS011;25422;48.286;8.484;2023-03-17T06:36:55;5.43;;;4.07;;
39738;SDS011;25422;48.286;8.484;2023-03-17T06:39:20;6.18;;;4.50;;
39738;SDS011;25422;48.286;8.484;2023-03-17T06:41:46;8.45;;;4.60;;
39738;SDS011;25422;48.286;8.484;2023-03-17T06:44:12;7.32;;;4.68;;
39738;SDS011;25422;48.286;8.484;2023-03-17T06:46:38;7.03;;;4.72;;
39738;SDS011;25422;48.286;8.484;2023-03-17T06:49:03;5.97;;;4.40;;
39738;SDS011;25422;48.286;8.484;2023-03-17T06:51:29;6.25;;;4.30;;
39738;SDS011;25422;48.286;8.484;2023-03-17T06:53:56;6.82;;;3.70;;
39738;SDS011;25422;48.286;8.484;2023-03-17T06:56:22;7.60;;;4.20;;
39738;SDS011;25422;48.286;8.484;2023-03-17T06:58:48;8.02;;;4.55;;
39738;SDS011;25422;48.286;8.484;2023-03-17T07:01:13;6.00;;;4.32;;
39738;SDS011;25422;48.286;8.484;2023-03-17T07:03:39;6.82;;;4.78;;
39738;SDS011;25422;48.286;8.484;2023-03-17T07:06:05;11.65;;;6.00;;
39738;SDS011;25422;48.286;8.484;2023-03-17T07:08:32;11.70;;;5.35;;
39738;SDS011;25422;48.286;8.484;2023-03-17T07:10:58;17.15;;;7.13;;
39738;SDS011;25422;48.286;8.484;2023-03-17T07:13:24;16.02;;;7.22;;
39738;SDS011;25422;48.286;8.484;2023-03-17T07:15:51;14.43;;;6.88;;
39738;SDS011;25422;48.286;8.484;2023-03-17T07:18:18;10.85;;;5.90;;
39738;SDS011;25422;48.286;8.484;2023-03-17T07:20:44;8.82;;;4.97;;
39738;SDS011;25422;48.286;8.484;2023-03-17T07:23:21;8.15;;;4.60;;
39738;SDS011;25422;48.286;8.484;2023-03-17T07:25:47;8.00;;;4.10;;
39738;SDS011;25422;48.286;8.484;2023-03-17T07:28:13;6.00;;;4.13;;
39738;SDS011;25422;48.286;8.484;2023-03-17T07:30:39;8.00;;;4.05;;
39738;SDS011;25422;48.286;8.484;2023-03-17T07:33:07;5.13;;;3.58;;
39738;SDS011;25422;48.286;8.484;2023-03-17T07:35:33;4.88;;;3.50;;
39738;SDS011;25422;48.286;8.484;2023-03-17T07:37:59;4.60;;;3.42;;
39738;SDS011;25422;48.286;8.484;2023-03-17T07:40:24;6.57;;;3.92;;
39738;SDS011;25422;48.286;8.484;2023-03-17T07:42:50;4.63;;;3.40;;
39738;SDS011;25422;48.286;8.484;2023-03-17T07:45:16;4.82;;;3.33;;
39738;SDS011;25422;48.286;8.484;2023-03-17T07:47:41;5.20;;;3.25;;
39738;SDS011;25422;48.286;8.484;2023-03-17T07:50:07;4.60;;;3.22;;
39738;SDS011;25422;48.286;8.484;2023-03-17T07:52:33;3.97;;;3.30;;
39738;SDS011;25422;48.286;8.484;2023-03-17T07:54:59;5.18;;;3.28;;
39738;SDS011;25422;48.286;8.484;2023-03-17T07:57:24;7.10;;;3.70;;
39738;SDS011;25422;48.286;8.484;2023-03-17T07:59:51;4.30;;;3.33;;
39738;SDS011;25422;48.286;8.484;2023-03-17T08:02:16;5.88;;;4.00;;
39738;SDS011;25422;48.286;8.484;2023-03-17T08:04:43;5.07;;;3.40;;
39738;SDS011;25422;48.286;8.484;2023-03-17T08:07:09;5.70;;;3.50;;
39738;SDS011;25422;48.286;8.484;2023-03-17T08:09:37;4.47;;;3.30;;
39738;SDS011;25422;48.286;8.484;2023-03-17T08:12:02;4.72;;;3.80;;
39738;SDS011;25422;48.286;8.484;2023-03-17T08:14:28;5.63;;;4.00;;
39738;SDS011;25422;48.286;8.484;2023-03-17T08:16:54;5.22;;;3.47;;
39738;SDS011;25422;48.286;8.484;2023-03-17T08:19:20;6.53;;;3.85;;
39738;SDS011;25422;48.286;8.484;2023-03-17T08:21:46;7.75;;;3.60;;
39738;SDS011;25422;48.286;8.484;2023-03-17T08:24:11;6.30;;;3.65;;
39738;SDS011;25422;48.286;8.484;2023-03-17T08:26:36;5.40;;;3.65;;
39738;SDS011;25422;48.286;8.484;2023-03-17T08:29:02;4.60;;;3.55;;
39738;SDS011;25422;48.286;8.484;2023-03-17T08:31:29;6.57;;;3.67;;
39738;SDS011;25422;48.286;8.484;2023-03-17T08:33:55;5.43;;;3.83;;
39738;SDS011;25422;48.286;8.484;2023-03-17T08:36:21;5.82;;;3.67;;
39738;SDS011;25422;48.286;8.484;2023-03-17T08:38:48;6.05;;;4.00;;
39738;SDS011;25422;48.286;8.484;2023-03-17T08:41:15;6.10;;;4.30;;
39738;SDS011;25422;48.286;8.484;2023-03-17T08:43:43;6.73;;;3.80;;
39738;SDS011;25422;48.286;8.484;2023-03-17T08:46:14;5.47;;;4.00;;
39738;SDS011;25422;48.286;8.484;2023-03-17T08:48:42;5.55;;;3.88;;
39738;SDS011;25422;48.286;8.484;2023-03-17T08:51:09;10.25;;;4.22;;
39738;SDS011;25422;48.286;8.484;2023-03-17T08:53:34;8.25;;;4.28;;
39738;SDS011;25422;48.286;8.484;2023-03-17T08:56:01;7.25;;;4.32;;
39738;SDS011;25422;48.286;8.484;2023-03-17T08:58:28;7.53;;;4.03;;
39738;SDS011;25422;48.286;8.484;2023-03-17T09:00:57;6.93;;;4.07;;
39738;SDS011;25422;48.286;8.484;2023-03-17T09:03:24;7.68;;;4.38;;
39738;SDS011;25422;48.286;8.484;2023-03-17T09:05:50;9.57;;;4.35;;
39738;SDS011;25422;48.286;8.484;2023-03-17T09:08:16;6.20;;;4.25;;
39738;SDS011;25422;48.286;8.484;2023-03-17T09:10:42;6.38;;;4.30;;
39738;SDS011;25422;48.286;8.484;2023-03-17T09:13:07;8.13;;;4.68;;
39738;SDS011;25422;48.286;8.484;2023-03-17T09:15:34;6.90;;;4.03;;
39738;SDS011;25422;48.286;8.484;2023-03-17T09:17:59;6.68;;;4.22;;
39738;SDS011;25422;48.286;8.484;2023-03-17T09:20:25;8.57;;;4.25;;
39738;SDS011;25422;48.286;8.484;2023-03-17T09:22:51;6.45;;;4.55;;
39738;SDS011;25422;48.286;8.484;2023-03-17T09:25:17;6.68;;;3.63;;
39738;SDS011;25422;48.286;8.484;2023-03-17T09:27:42;7.07;;;4.20;;
39738;SDS011;25422;48.286;8.484;2023-03-17T09:30:09;5.63;;;4.03;;
39738;SDS011;25422;48.286;8.484;2023-03-17T09:32:37;7.28;;;4.40;;
39738;SDS011;25422;48.286;8.484;2023-03-17T09:35:04;6.50;;;4.53;;
39738;SDS011;25422;48.286;8.484;2023-03-17T09:37:30;9.80;;;4.38;;
39738;SDS011;25422;48.286;8.484;2023-03-17T09:39:55;7.57;;;4.32;;
39738;SDS011;25422;48.286;8.484;2023-03-17T09:45:33;6.15;;;4.10;;
39738;SDS011;25422;48.286;8.484;2023-03-17T09:51:06;5.93;;;3.40;;
39738;SDS011;25422;48.286;8.484;2023-03-17T09:53:34;10.70;;;4.40;;
39738;SDS011;25422;48.286;8.484;2023-03-17T09:56:05;6.97;;;3.83;;
39738;SDS011;25422;48.286;8.484;2023-03-17T09:58:41;9.55;;;3.92;;
39738;SDS011;25422;48.286;8.484;2023-03-17T10:01:12;6.25;;;4.20;;
39738;SDS011;25422;48.286;8.484;2023-03-17T10:03:38;8.00;;;4.18;;
39738;SDS011;25422;48.286;8.484;2023-03-17T10:12:02;12.27;;;4.95;;
39738;SDS011;25422;48.286;8.484;2023-03-17T10:14:40;8.85;;;4.32;;
39738;SDS011;25422;48.286;8.484;2023-03-17T10:17:29;6.03;;;3.70;;
39738;SDS011;25422;48.286;8.484;2023-03-17T10:20:00;5.75;;;3.90;;
39738;SDS011;25422;48.286;8.484;2023-03-17T10:22:36;6.05;;;3.95;;
39738;SDS011;25422;48.286;8.484;2023-03-17T10:27:44;10.63;;;4.32;;
39738;SDS011;25422;48.286;8.484;2023-03-17T10:30:32;5.85;;;2.60;;
39738;SDS011;25422;48.286;8.484;2023-03-17T10:32:59;3.83;;;2.92;;
39738;SDS011;25422;48.286;8.484;2023-03-17T10:35:26;4.78;;;3.05;;
39738;SDS011;25422;48.286;8.484;2023-03-17T10:37:52;7.93;;;2.72;;
39738;SDS011;25422;48.286;8.484;2023-03-17T10:40:27;3.70;;;2.80;;
39738;SDS011;25422;48.286;8.484;2023-03-17T10:43:04;5.57;;;2.55;;
39738;SDS011;25422;48.286;8.484;2023-03-17T10:45:35;7.03;;;2.97;;
39738;SDS011;25422;48.286;8.484;2023-03-17T10:48:06;4.18;;;2.80;;
39738;SDS011;25422;48.286;8.484;2023-03-17T10:50:37;4.72;;;2.70;;
39738;SDS011;25422;48.286;8.484;2023-03-17T10:53:06;3.33;;;2.75;;
39738;SDS011;25422;48.286;8.484;2023-03-17T10:58:14;4.88;;;2.35;;
39738;SDS011;25422;48.286;8.484;2023-03-17T11:00:56;3.90;;;2.05;;
39738;SDS011;25422;48.286;8.484;2023-03-17T11:03:28;3.13;;;1.98;;
39738;SDS011;25422;48.286;8.484;2023-03-17T11:06:02;4.45;;;2.00;;
39738;SDS011;25422;48.286;8.484;2023-03-17T11:08:30;7.85;;;2.35;;
39738;SDS011;25422;48.286;8.484;2023-03-17T11:10:56;2.85;;;1.75;;
39738;SDS011;25422;48.286;8.484;2023-03-17T11:13:27;6.47;;;1.80;;
39738;SDS011;25422;48.286;8.484;2023-03-17T11:16:17;4.75;;;1.92;;
39738;SDS011;25422;48.286;8.484;2023-03-17T11:18:47;3.58;;;1.40;;
39738;SDS011;25422;48.286;8.484;2023-03-17T11:21:29;2.47;;;1.50;;
39738;SDS011;25422;48.286;8.484;2023-03-17T11:24:02;3.30;;;1.63;;
39738;SDS011;25422;48.286;8.484;2023-03-17T11:29:21;3.15;;;1.40;;
39738;SDS011;25422;48.286;8.484;2023-03-17T11:32:19;1.95;;;1.48;;
39738;SDS011;25422;48.286;8.484;2023-03-17T11:35:11;2.95;;;1.40;;
39738;SDS011;25422;48.286;8.484;2023-03-17T11:41:11;1.98;;;1.20;;
39738;SDS011;25422;48.286;8.484;2023-03-17T11:46:39;2.05;;;1.52;;
39738;SDS011;25422;48.286;8.484;2023-03-17T11:54:34;2.03;;;1.30;;
39738;SDS011;25422;48.286;8.484;2023-03-17T11:57:08;3.92;;;1.70;;
39738;SDS011;25422;48.286;8.484;2023-03-17T12:00:13;1.95;;;1.30;;
39738;SDS011;25422;48.286;8.484;2023-03-17T12:05:59;7.25;;;1.33;;
39738;SDS011;25422;48.286;8.484;2023-03-17T12:08:41;1.25;;;1.15;;
39738;SDS011;25422;48.286;8.484;2023-03-17T12:11:15;1.63;;;1.10;;
39738;SDS011;25422;48.286;8.484;2023-03-17T12:13:54;1.83;;;0.88;;
39738;SDS011;25422;48.286;8.484;2023-03-17T12:16:46;5.55;;;1.60;;
39738;SDS011;25422;48.286;8.484;2023-03-17T12:22:04;1.48;;;1.20;;
39738;SDS011;25422;48.286;8.484;2023-03-17T12:27:10;2.83;;;1.10;;
39738;SDS011;25422;48.286;8.484;2023-03-17T12:32:25;2.13;;;1.10;;
39738;SDS011;25422;48.286;8.484;2023-03-17T12:35:22;1.95;;;1.08;;
39738;SDS011;25422;48.286;8.484;2023-03-17T12:38:03;2.90;;;1.00;;
39738;SDS011;25422;48.286;8.484;2023-03-17T12:40:35;2.17;;;0.85;;
39738;SDS011;25422;48.286;8.484;2023-03-17T12:43:46;1.98;;;1.10;;
39738;SDS011;25422;48.286;8.484;2023-03-17T12:54:37;5.40;;;0.75;;
39738;SDS011;25422;48.286;8.484;2023-03-17T13:02:50;1.48;;;0.90;;
39738;SDS011;25422;48.286;8.484;2023-03-17T13:05:31;1.50;;;0.90;;
39738;SDS011;25422;48.286;8.484;2023-03-17T13:07:58;0.98;;;0.80;;
39738;SDS011;25422;48.286;8.484;2023-03-17T13:16:03;1.10;;;0.90;;
39738;SDS011;25422;48.286;8.484;2023-03-17T13:23:44;1.67;;;1.00;;
39738;SDS011;25422;48.286;8.484;2023-03-17T13:26:13;0.95;;;0.82;;
39738;SDS011;25422;48.286;8.484;2023-03-17T13:28:44;1.60;;;1.20;;
39738;SDS011;25422;48.286;8.484;2023-03-17T13:33:57;1.85;;;0.88;;
39738;SDS011;25422;48.286;8.484;2023-03-17T13:36:42;1.58;;;0.95;;
39738;SDS011;25422;48.286;8.484;2023-03-17T13:45:30;2.33;;;0.93;;
39738;SDS011;25422;48.286;8.484;2023-03-17T13:47:43;2.75;;;0.93;;
39738;SDS011;25422;48.286;8.484;2023-03-17T13:57:41;2.33;;;0.90;;
39738;SDS011;25422;48.286;8.484;2023-03-17T14:00:24;1.08;;;0.80;;
39738;SDS011;25422;48.286;8.484;2023-03-17T14:02:59;2.13;;;1.00;;
39738;SDS011;25422;48.286;8.484;2023-03-17T14:05:30;2.15;;;0.80;;
39738;SDS011;25422;48.286;8.484;2023-03-17T14:08:03;1.13;;;0.88;;
39738;SDS011;25422;48.286;8.484;2023-03-17T14:10:33;1.77;;;1.13;;
39738;SDS011;25422;48.286;8.484;2023-03-17T14:13:00;1.75;;;1.20;;
39738;SDS011;25422;48.286;8.484;2023-03-17T14:15:40;1.40;;;0.90;;
39738;SDS011;25422;48.286;8.484;2023-03-17T14:18:16;5.20;;;1.20;;
39738;SDS011;25422;48.286;8.484;2023-03-17T14:20:56;3.58;;;1.00;;
39738;SDS011;25422;48.286;8.484;2023-03-17T14:23:23;2.55;;;1.10;;
39738;SDS011;25422;48.286;8.484;2023-03-17T14:25:50;4.70;;;1.15;;
39738;SDS011;25422;48.286;8.484;2023-03-17T14:28:17;2.15;;;1.38;;
39738;SDS011;25422;48.286;8.484;2023-03-17T14:30:51;1.98;;;1.17;;
39738;SDS011;25422;48.286;8.484;2023-03-17T14:33:26;5.00;;;1.00;;
39738;SDS011;25422;48.286;8.484;2023-03-17T14:35:57;3.65;;;1.10;;
39738;SDS011;25422;48.286;8.484;2023-03-17T14:38:26;2.30;;;1.10;;
39738;SDS011;25422;48.286;8.484;2023-03-17T14:43:41;3.15;;;0.98;;
39738;SDS011;25422;48.286;8.484;2023-03-17T14:46:23;3.65;;;1.10;;
39738;SDS011;25422;48.286;8.484;2023-03-17T14:49:01;4.43;;;1.38;;
39738;SDS011;25422;48.286;8.484;2023-03-17T14:51:42;2.10;;;1.00;;
39738;SDS011;25422;48.286;8.484;2023-03-17T14:54:15;2.30;;;1.00;;
39738;SDS011;25422;48.286;8.484;2023-03-17T14:56:47;2.15;;;1.33;;
39738;SDS011;25422;48.286;8.484;2023-03-17T14:59:37;3.22;;;1.25;;
39738;SDS011;25422;48.286;8.484;2023-03-17T15:02:20;2.72;;;1.33;;
39738;SDS011;25422;48.286;8.484;2023-03-17T15:07:44;3.35;;;1.10;;
39738;SDS011;25422;48.286;8.484;2023-03-17T15:10:20;1.23;;;0.90;;
39738;SDS011;25422;48.286;8.484;2023-03-17T15:12:58;2.25;;;1.23;;
39738;SDS011;25422;48.286;8.484;2023-03-17T15:15:28;6.68;;;4.15;;
39738;SDS011;25422;48.286;8.484;2023-03-17T15:17:57;1.65;;;1.40;;
39738;SDS011;25422;48.286;8.484;2023-03-17T15:20:25;3.38;;;1.50;;
39738;SDS011;25422;48.286;8.484;2023-03-17T15:25:25;5.57;;;2.13;;
39738;SDS011;25422;48.286;8.484;2023-03-17T15:27:56;2.85;;;1.40;;
39738;SDS011;25422;48.286;8.484;2023-03-17T15:30:23;7.45;;;5.72;;
39738;SDS011;25422;48.286;8.484;2023-03-17T15:32:57;2.83;;;1.73;;
39738;SDS011;25422;48.286;8.484;2023-03-17T15:35:24;3.45;;;1.65;;
39738;SDS011;25422;48.286;8.484;2023-03-17T15:37:51;2.10;;;1.20;;
39738;SDS011;25422;48.286;8.484;2023-03-17T15:40:18;6.78;;;1.77;;
39738;SDS011;25422;48.286;8.484;2023-03-17T15:42:44;4.15;;;2.25;;
39738;SDS011;25422;48.286;8.484;2023-03-17T15:45:13;8.60;;;3.65;;
39738;SDS011;25422;48.286;8.484;2023-03-17T15:47:40;6.50;;;2.78;;
39738;SDS011;25422;48.286;8.484;2023-03-17T15:52:45;7.75;;;1.92;;
39738;SDS011;25422;48.286;8.484;2023-03-17T15:55:19;17.23;;;2.47;;
39738;SDS011;25422;48.286;8.484;2023-03-17T15:57:47;8.13;;;1.92;;
39738;SDS011;25422;48.286;8.484;2023-03-17T16:00:13;4.15;;;2.00;;
39738;SDS011;25422;48.286;8.484;2023-03-17T16:02:43;1.42;;;1.10;;
39738;SDS011;25422;48.286;8.484;2023-03-17T16:05:14;2.40;;;1.15;;
39738;SDS011;25422;48.286;8.484;2023-03-17T16:07:42;2.15;;;1.20;;
39738;SDS011;25422;48.286;8.484;2023-03-17T16:10:19;3.95;;;1.58;;
39738;SDS011;25422;48.286;8.484;2023-03-17T16:12:44;3.92;;;1.10;;
39738;SDS011;25422;48.286;8.484;2023-03-17T16:15:18;2.72;;;1.30;;
39738;SDS011;25422;48.286;8.484;2023-03-17T16:17:46;4.28;;;1.67;;
39738;SDS011;25422;48.286;8.484;2023-03-17T16:22:51;6.78;;;2.30;;
39738;SDS011;25422;48.286;8.484;2023-03-17T16:27:48;5.45;;;1.92;;
39738;SDS011;25422;48.286;8.484;2023-03-17T16:30:15;2.58;;;1.73;;
39738;SDS011;25422;48.286;8.484;2023-03-17T16:32:51;5.70;;;1.70;;
39738;SDS011;25422;48.286;8.484;2023-03-17T16:35:22;4.60;;;1.80;;
39738;SDS011;25422;48.286;8.484;2023-03-17T16:37:49;2.40;;;1.40;;
39738;SDS011;25422;48.286;8.484;2023-03-17T16:40:21;5.15;;;1.55;;
39738;SDS011;25422;48.286;8.484;2023-03-17T16:42:46;2.33;;;1.40;;
39738;SDS011;25422;48.286;8.484;2023-03-17T16:45:25;3.45;;;1.48;;
39738;SDS011;25422;48.286;8.484;2023-03-17T16:47:53;2.95;;;1.60;;
39738;SDS011;25422;48.286;8.484;2023-03-17T16:50:20;2.63;;;1.40;;
39738;SDS011;25422;48.286;8.484;2023-03-17T16:52:48;6.13;;;1.50;;